Time;durP1;ratioP1;P1;durP2;ratioP2;P2;SDS_P1;SDS_P2;PMS_P1;PMS_P2;Temp;Humidity;BMP_temperature;BMP_pressure;BME280_temperature;BME280_humidity;BME280_pressure;Samples;Min_cycle;Max_cycle;Signal;HPM_P1;HPM_P2
2022/06/12 00:01:24;;;;;;;1.98;0.63;;;15.00;99.90;;;;;;5098720;28;20239;-80
2022/06/12 00:03:54;;;;;;;1.33;0.60;;;15.10;99.90;;;;;;5092348;28;20661;-79
2022/06/12 00:06:26;;;;;;;1.35;0.60;;;15.20;99.90;;;;;;5107030;28;20681;-79
2022/06/12 00:08:59;;;;;;;3.58;0.60;;;15.20;99.90;;;;;;5072903;28;20203;-79
2022/06/12 00:11:33;;;;;;;1.85;0.68;;;15.30;99.90;;;;;;5090662;28;20200;-79
2022/06/12 00:14:05;;;;;;;2.25;0.73;;;15.40;99.90;;;;;;5094403;28;20657;-80
2022/06/12 00:16:40;;;;;;;1.05;0.52;;;15.50;99.90;;;;;;5111935;28;20194;-79
2022/06/12 00:19:12;;;;;;;1.80;0.77;;;15.40;99.90;;;;;;5097193;28;20196;-80
2022/06/12 00:21:43;;;;;;;1.35;0.50;;;15.50;99.90;;;;;;5099886;28;20199;-81
2022/06/12 00:24:18;;;;;;;3.25;0.68;;;15.60;99.90;;;;;;5104597;28;20222;-80
2022/06/12 00:26:52;;;;;;;3.08;0.75;;;15.70;99.90;;;;;;5100523;28;20230;-80
2022/06/12 00:29:24;;;;;;;2.33;0.70;;;15.80;99.90;;;;;;5083903;28;20642;-79
2022/06/12 00:31:58;;;;;;;1.77;0.57;;;15.80;99.90;;;;;;5074740;28;20219;-80
2022/06/12 00:34:34;;;;;;;2.55;0.50;;;15.90;99.90;;;;;;5076985;28;20245;-80
2022/06/12 00:37:05;;;;;;;3.55;0.90;;;15.90;99.90;;;;;;5112745;28;20198;-80
2022/06/12 00:39:37;;;;;;;5.07;0.70;;;16.00;99.90;;;;;;5101803;28;20271;-81
2022/06/12 00:42:11;;;;;;;1.50;0.40;;;16.10;99.90;;;;;;5094908;28;20194;-79
2022/06/12 00:44:44;;;;;;;1.98;0.63;;;16.10;99.90;;;;;;5107369;28;20794;-79
2022/06/12 00:47:16;;;;;;;1.05;0.60;;;16.20;99.90;;;;;;5110599;28;20241;-80
2022/06/12 00:49:51;;;;;;;1.35;0.60;;;16.20;99.90;;;;;;5111217;28;20195;-80
2022/06/12 00:52:25;;;;;;;1.33;0.60;;;16.20;99.90;;;;;;5104235;28;20190;-81
2022/06/12 00:55:02;;;;;;;3.08;0.90;;;16.30;99.90;;;;;;5112217;28;20672;-81
2022/06/12 00:57:36;;;;;;;3.75;0.70;;;16.40;99.90;;;;;;5072423;28;20192;-80
2022/06/12 01:00:11;;;;;;;1.48;0.82;;;16.40;99.90;;;;;;5085625;28;20314;-79
2022/06/12 01:02:43;;;;;;;1.95;0.80;;;16.50;99.90;;;;;;5096585;28;20217;-80
2022/06/12 01:08:07;;;;;;;1.30;0.60;;;16.60;99.90;;;;;;5080860;28;20244;-80
2022/06/12 01:10:41;;;;;;;3.40;0.80;;;16.70;99.90;;;;;;5074717;28;20192;-80
2022/06/12 01:13:18;;;;;;;3.22;0.75;;;16.80;99.90;;;;;;5081692;28;20207;-80
2022/06/12 01:15:53;;;;;;;1.20;0.70;;;16.90;99.90;;;;;;5103036;28;20190;-80
2022/06/12 01:18:25;;;;;;;1.88;0.60;;;16.90;99.90;;;;;;5109137;28;20194;-80
2022/06/12 01:21:06;;;;;;;2.55;0.80;;;17.00;99.90;;;;;;5092284;28;20223;-80
2022/06/12 01:24:03;;;;;;;1.45;0.70;;;17.10;99.90;;;;;;5095175;28;20218;-78
2022/06/12 01:27:08;;;;;;;1.70;0.63;;;17.00;99.90;;;;;;5112103;28;20195;-78
2022/06/12 01:29:50;;;;;;;0.73;0.47;;;17.10;99.90;;;;;;5091917;28;20650;-77
2022/06/12 01:32:31;;;;;;;2.05;0.40;;;17.10;99.90;;;;;;5075342;28;20200;-77
2022/06/12 01:35:07;;;;;;;1.75;0.70;;;17.20;99.90;;;;;;5107910;28;20257;-77
2022/06/12 01:37:48;;;;;;;1.40;0.73;;;17.30;99.90;;;;;;5110829;28;20199;-79
2022/06/12 01:40:28;;;;;;;1.45;0.70;;;17.40;99.90;;;;;;5111743;28;20240;-77
2022/06/12 01:43:10;;;;;;;1.90;0.68;;;17.50;99.90;;;;;;5106670;28;20207;-77
2022/06/12 01:45:47;;;;;;;3.33;0.85;;;17.60;99.90;;;;;;5105496;28;20653;-77
2022/06/12 01:48:29;;;;;;;3.15;0.88;;;17.70;99.90;;;;;;5076396;28;20207;-78
2022/06/12 01:51:09;;;;;;;1.58;0.68;;;17.70;99.90;;;;;;5087883;28;20196;-77
2022/06/12 01:53:47;;;;;;;2.70;0.80;;;17.50;99.90;;;;;;5085291;28;20200;-77
2022/06/12 01:56:24;;;;;;;3.00;1.05;;;17.50;99.90;;;;;;5102589;28;20196;-78
2022/06/12 01:59:03;;;;;;;1.63;0.88;;;17.50;99.90;;;;;;5111301;28;20198;-76
2022/06/12 02:01:41;;;;;;;1.00;0.45;;;17.60;99.90;;;;;;5105186;28;20248;-76
2022/06/12 02:04:18;;;;;;;0.95;0.50;;;17.80;99.90;;;;;;5094055;28;20200;-76
2022/06/12 02:06:56;;;;;;;2.78;0.93;;;17.80;99.90;;;;;;5094448;28;20217;-76
2022/06/12 02:09:31;;;;;;;1.33;0.57;;;17.90;99.90;;;;;;5098937;28;20196;-77
2022/06/12 02:14:58;;;;;;;2.28;0.60;;;17.90;99.90;;;;;;5110133;28;20314;-80
2022/06/12 02:17:37;;;;;;;2.25;0.70;;;17.80;99.90;;;;;;5085208;28;20213;-83
2022/06/12 02:20:12;;;;;;;1.52;0.63;;;17.90;99.90;;;;;;5087641;28;20199;-83
2022/06/12 02:22:45;;;;;;;1.35;0.60;;;17.90;99.50;;;;;;5092136;28;20198;-82
2022/06/12 02:25:20;;;;;;;1.40;0.68;;;17.80;98.90;;;;;;5111430;28;20222;-83
2022/06/12 02:27:57;;;;;;;1.65;0.70;;;17.80;99.70;;;;;;5102349;28;20701;-83
2022/06/12 02:30:32;;;;;;;1.58;0.60;;;17.90;98.30;;;;;;5111989;28;20645;-81
2022/06/12 02:33:08;;;;;;;1.67;0.40;;;17.80;97.80;;;;;;5094313;28;20737;-81
2022/06/12 02:35:46;;;;;;;4.25;0.70;;;17.80;97.10;;;;;;5073965;28;20224;-81
2022/06/12 02:38:20;;;;;;;6.82;0.90;;;17.80;96.50;;;;;;5082900;28;20206;-83
2022/06/12 02:40:54;;;;;;;2.25;0.55;;;17.80;97.00;;;;;;5090038;28;20254;-82
2022/06/12 02:43:32;;;;;;;1.17;0.50;;;17.80;97.10;;;;;;5091982;28;20661;-81
2022/06/12 02:46:07;;;;;;;1.52;0.55;;;17.60;96.90;;;;;;5091176;28;20215;-80
2022/06/12 02:48:40;;;;;;;1.42;0.73;;;17.70;97.00;;;;;;5107298;28;20197;-80
2022/06/12 02:51:17;;;;;;;1.75;0.70;;;17.80;96.40;;;;;;5070693;28;20713;-80
2022/06/12 02:54:00;;;;;;;0.75;0.57;;;17.70;97.10;;;;;;5089699;28;20201;-80
2022/06/12 02:56:41;;;;;;;2.63;0.90;;;17.70;95.50;;;;;;5086989;28;20218;-81
2022/06/12 02:59:28;;;;;;;1.08;0.57;;;17.70;96.20;;;;;;5070330;28;20191;-82
2022/06/12 03:02:09;;;;;;;0.85;0.40;;;17.90;96.40;;;;;;5087444;28;20742;-90
2022/06/12 03:04:47;;;;;;;1.67;0.60;;;18.00;94.90;;;;;;5076721;28;20211;-77
2022/06/12 03:07:18;;;;;;;1.05;0.60;;;18.00;95.00;;;;;;5089714;28;20212;-78
2022/06/12 03:09:49;;;;;;;1.73;0.60;;;18.00;94.80;;;;;;5089898;28;20796;-79
2022/06/12 03:12:20;;;;;;;1.20;0.60;;;17.90;94.90;;;;;;5088291;28;20673;-78
2022/06/12 03:14:52;;;;;;;3.10;0.60;;;17.90;95.10;;;;;;5076798;28;20200;-79
2022/06/12 03:17:24;;;;;;;2.58;0.68;;;18.00;94.60;;;;;;5103227;28;20194;-78
2022/06/12 03:19:59;;;;;;;2.60;0.60;;;18.00;94.50;;;;;;5093941;28;20191;-81
2022/06/12 03:22:39;;;;;;;2.75;0.88;;;18.00;94.30;;;;;;5090122;28;20234;-81
2022/06/12 03:25:18;;;;;;;1.70;0.45;;;18.00;94.60;;;;;;5070780;28;20727;-81
2022/06/12 03:27:58;;;;;;;0.63;0.30;;;18.00;93.50;;;;;;5072591;28;20195;-81
2022/06/12 03:30:35;;;;;;;1.15;0.60;;;17.90;93.70;;;;;;5086438;28;20670;-81
2022/06/12 03:33:13;;;;;;;3.83;1.42;;;17.90;94.40;;;;;;5104841;28;20221;-78
2022/06/12 03:35:56;;;;;;;0.82;0.50;;;17.90;93.90;;;;;;5098770;28;20236;-78
2022/06/12 03:38:34;;;;;;;0.73;0.40;;;17.80;93.90;;;;;;5108034;28;20291;-77
2022/06/12 03:41:14;;;;;;;6.07;3.10;;;17.70;93.90;;;;;;5087281;28;20233;-78
2022/06/12 03:43:53;;;;;;;2.95;2.00;;;17.80;94.40;;;;;;5114389;28;20703;-78
2022/06/12 03:46:28;;;;;;;1.35;0.60;;;17.80;94.00;;;;;;5106731;28;20226;-77
2022/06/12 03:49:05;;;;;;;0.60;0.57;;;17.70;93.90;;;;;;5090792;28;20542;-78
2022/06/12 03:51:42;;;;;;;0.40;0.38;;;17.50;94.50;;;;;;5093905;28;20195;-76
2022/06/12 03:54:25;;;;;;;1.88;0.70;;;17.60;94.80;;;;;;5101858;28;20198;-84
2022/06/12 03:59:52;;;;;;;1.10;0.55;;;17.60;94.70;;;;;;5102783;28;20194;-78
2022/06/12 04:02:26;;;;;;;3.25;0.80;;;17.60;94.50;;;;;;5105762;28;20222;-78
2022/06/12 04:04:58;;;;;;;1.02;0.50;;;17.60;95.00;;;;;;5084541;28;20190;-78
2022/06/12 04:07:33;;;;;;;1.73;0.50;;;17.60;95.20;;;;;;5109874;28;20190;-78
2022/06/12 04:10:04;;;;;;;1.73;0.85;;;17.50;95.10;;;;;;5111872;28;20198;-78
2022/06/12 04:12:37;;;;;;;2.58;0.77;;;17.60;95.80;;;;;;5105346;28;20215;-78
2022/06/12 04:15:14;;;;;;;0.75;0.55;;;17.60;96.60;;;;;;5104795;28;20730;-78
2022/06/12 04:17:45;;;;;;;0.70;0.40;;;17.70;96.30;;;;;;5090164;28;20222;-78
2022/06/12 04:20:20;;;;;;;0.57;0.32;;;17.70;95.40;;;;;;5097037;28;20200;-77
2022/06/12 04:23:03;;;;;;;0.77;0.47;;;17.60;95.80;;;;;;5095662;28;20230;-82
2022/06/12 04:25:41;;;;;;;0.35;0.30;;;17.50;95.80;;;;;;5105084;28;20198;-85
2022/06/12 04:28:34;;;;;;;1.08;0.68;;;17.40;95.50;;;;;;5110329;28;20202;-83
2022/06/12 04:31:07;;;;;;;0.60;0.40;;;17.40;96.00;;;;;;5097945;28;20704;-78
2022/06/12 04:33:53;;;;;;;1.48;0.57;;;17.30;96.50;;;;;;5112562;28;20241;-85
2022/06/12 04:36:24;;;;;;;1.10;0.50;;;17.30;96.70;;;;;;5091619;28;20179;-80
2022/06/12 04:38:56;;;;;;;1.95;0.40;;;17.30;97.10;;;;;;5087181;28;20519;-79
2022/06/12 04:41:30;;;;;;;0.93;0.40;;;17.40;97.00;;;;;;5103274;28;20226;-79
2022/06/12 04:44:00;;;;;;;4.50;0.43;;;17.30;97.30;;;;;;5113552;28;20198;-80
2022/06/12 04:46:32;;;;;;;0.95;0.55;;;17.30;97.30;;;;;;5097806;28;20697;-78
2022/06/12 04:49:03;;;;;;;0.80;0.50;;;17.30;98.00;;;;;;5106649;28;20187;-79
2022/06/12 04:51:34;;;;;;;2.75;0.50;;;17.30;97.10;;;;;;5111090;28;20206;-78
2022/06/12 04:54:07;;;;;;;0.55;0.40;;;17.30;97.80;;;;;;5096799;28;20227;-79
2022/06/12 04:56:38;;;;;;;1.52;0.90;;;17.30;97.10;;;;;;5072861;28;20195;-78
2022/06/12 04:59:10;;;;;;;1.48;0.60;;;17.20;96.80;;;;;;5091322;28;20700;-78
2022/06/12 05:01:40;;;;;;;1.35;0.40;;;17.20;97.40;;;;;;5119007;28;20229;-79
2022/06/12 05:04:12;;;;;;;1.05;0.50;;;17.20;98.00;;;;;;5132630;28;20196;-79
2022/06/12 05:06:44;;;;;;;2.33;0.40;;;17.20;98.00;;;;;;5124707;28;20194;-78
2022/06/12 05:09:18;;;;;;;2.78;0.80;;;17.20;98.20;;;;;;5104041;28;20274;-81
2022/06/12 05:11:49;;;;;;;0.80;0.35;;;17.10;98.70;;;;;;5089467;28;20662;-78
2022/06/12 05:14:20;;;;;;;0.40;0.30;;;17.10;98.40;;;;;;5106641;28;20206;-78
2022/06/12 05:16:53;;;;;;;1.38;0.43;;;17.00;99.00;;;;;;5112052;28;20217;-77
2022/06/12 05:19:26;;;;;;;0.40;0.40;;;17.00;99.10;;;;;;5110594;28;20194;-77
2022/06/12 05:21:57;;;;;;;0.85;0.40;;;16.90;99.10;;;;;;5114524;28;20275;-78
2022/06/12 05:24:30;;;;;;;1.30;0.60;;;17.00;99.40;;;;;;5112766;28;20195;-78
2022/06/12 05:27:01;;;;;;;1.65;0.63;;;17.00;99.60;;;;;;5114330;28;20195;-78
2022/06/12 05:29:35;;;;;;;2.25;0.47;;;17.00;99.70;;;;;;5094830;28;20194;-78
2022/06/12 05:32:06;;;;;;;1.05;0.50;;;17.00;99.90;;;;;;5113173;28;20258;-78
2022/06/12 05:34:37;;;;;;;1.55;0.40;;;17.00;99.90;;;;;;5111350;28;20597;-77
2022/06/12 05:37:08;;;;;;;1.08;0.50;;;16.90;99.90;;;;;;5108805;28;20637;-77
2022/06/12 05:39:41;;;;;;;2.50;0.38;;;16.90;99.90;;;;;;5078799;28;20207;-77
2022/06/12 05:42:12;;;;;;;0.88;0.50;;;16.80;99.90;;;;;;5091038;28;20229;-77
2022/06/12 05:44:43;;;;;;;2.40;0.50;;;16.90;99.90;;;;;;5102136;28;20211;-78
2022/06/12 05:47:14;;;;;;;1.23;0.38;;;16.90;99.90;;;;;;5102492;28;20285;-77
2022/06/12 05:49:47;;;;;;;0.85;0.35;;;16.80;99.90;;;;;;5108303;28;20202;-78
2022/06/12 05:52:18;;;;;;;1.10;0.50;;;16.70;99.90;;;;;;5107739;28;20210;-77
2022/06/12 05:54:52;;;;;;;0.82;0.40;;;16.80;99.90;;;;;;5105384;28;20195;-82
2022/06/12 05:57:23;;;;;;;0.68;0.55;;;16.80;99.90;;;;;;5076112;28;20220;-78
2022/06/12 05:59:53;;;;;;;0.55;0.40;;;16.90;99.90;;;;;;5090979;28;20195;-78
2022/06/12 06:02:24;;;;;;;0.45;0.40;;;16.80;99.90;;;;;;5093709;28;20646;-77
2022/06/12 06:04:55;;;;;;;0.40;0.30;;;16.80;99.90;;;;;;5100366;28;20194;-78
2022/06/12 06:07:25;;;;;;;1.02;0.40;;;16.80;99.90;;;;;;5109693;28;20554;-78
2022/06/12 06:09:58;;;;;;;1.08;0.30;;;16.80;99.90;;;;;;5104471;28;20252;-77
2022/06/12 06:12:29;;;;;;;0.98;0.35;;;16.70;99.90;;;;;;5106083;28;20247;-77
2022/06/12 06:15:03;;;;;;;0.45;0.30;;;16.60;99.90;;;;;;5107013;28;20211;-78
2022/06/12 06:17:33;;;;;;;0.90;0.50;;;16.50;99.90;;;;;;5102792;28;20194;-82
2022/06/12 06:20:04;;;;;;;1.23;0.50;;;16.50;99.90;;;;;;5074890;28;20195;-82
2022/06/12 06:22:35;;;;;;;1.23;0.47;;;16.50;99.90;;;;;;5069721;28;20228;-79
2022/06/12 06:25:08;;;;;;;1.08;0.45;;;16.40;99.90;;;;;;5070967;28;20188;-79
2022/06/12 06:27:39;;;;;;;0.85;0.52;;;16.30;99.90;;;;;;5091061;28;20222;-77
2022/06/12 06:30:10;;;;;;;1.77;0.70;;;16.30;99.90;;;;;;5100372;28;20203;-78
2022/06/12 06:32:41;;;;;;;3.55;1.38;;;16.20;99.90;;;;;;5090511;28;20207;-78
2022/06/12 06:35:12;;;;;;;2.25;1.40;;;16.10;99.90;;;;;;5104197;28;20457;-78
2022/06/12 06:37:43;;;;;;;1.13;0.40;;;16.00;99.90;;;;;;5076306;28;20191;-79
2022/06/12 06:40:18;;;;;;;1.25;1.00;;;16.00;99.90;;;;;;5103125;28;20195;-79
2022/06/12 06:42:49;;;;;;;1.00;0.90;;;16.00;99.90;;;;;;5111013;28;20226;-80
2022/06/12 06:48:09;;;;;;;1.13;0.50;;;15.90;99.90;;;;;;5099112;28;20213;-79
2022/06/12 06:50:40;;;;;;;0.63;0.63;;;15.70;99.90;;;;;;5110997;28;20195;-79
2022/06/12 06:53:11;;;;;;;3.30;1.98;;;15.80;99.90;;;;;;5097307;28;20218;-83
2022/06/12 06:55:44;;;;;;;3.97;2.10;;;15.80;99.90;;;;;;5088652;28;20242;-79
2022/06/12 06:58:22;;;;;;;1.70;1.20;;;15.70;99.90;;;;;;5105486;28;20197;-79
2022/06/12 07:00:54;;;;;;;0.73;0.60;;;15.60;99.90;;;;;;5089563;28;20219;-78
2022/06/12 07:03:25;;;;;;;1.05;0.80;;;15.50;99.90;;;;;;5109856;28;20658;-78
2022/06/12 07:05:56;;;;;;;1.67;0.60;;;15.50;99.90;;;;;;5110989;28;20194;-79
2022/06/12 07:08:28;;;;;;;1.13;0.60;;;15.50;99.90;;;;;;5101756;28;20190;-85
2022/06/12 07:11:01;;;;;;;0.52;0.50;;;15.40;99.90;;;;;;5089646;28;20191;-83
2022/06/12 07:13:32;;;;;;;2.58;0.90;;;15.50;99.90;;;;;;5074717;28;20208;-80
2022/06/12 07:16:03;;;;;;;1.00;0.52;;;15.40;99.90;;;;;;5078978;28;20592;-80
2022/06/12 07:18:33;;;;;;;0.90;0.68;;;15.40;99.90;;;;;;5112361;28;20190;-80
2022/06/12 07:21:05;;;;;;;2.08;0.65;;;15.40;99.90;;;;;;5113495;28;20194;-80
2022/06/12 07:23:36;;;;;;;1.27;0.80;;;15.40;99.90;;;;;;5111381;28;20230;-80
2022/06/12 07:26:11;;;;;;;1.55;0.60;;;15.30;99.90;;;;;;5111869;28;20285;-81
2022/06/12 07:28:42;;;;;;;0.63;0.60;;;15.30;99.90;;;;;;5074822;28;20568;-80
2022/06/12 07:31:13;;;;;;;2.05;0.70;;;15.20;99.90;;;;;;5089264;28;20552;-80
2022/06/12 07:33:44;;;;;;;1.30;0.63;;;15.20;99.90;;;;;;5108286;28;20237;-80
2022/06/12 07:36:16;;;;;;;1.42;0.70;;;15.10;99.90;;;;;;5110066;28;20198;-80
2022/06/12 07:38:48;;;;;;;4.70;1.70;;;15.20;99.90;;;;;;5113056;28;20624;-80
2022/06/12 07:41:21;;;;;;;0.95;0.60;;;15.10;99.90;;;;;;5114341;28;20198;-80
2022/06/12 07:43:52;;;;;;;2.22;0.70;;;15.10;99.90;;;;;;5079842;28;20249;-80
2022/06/12 07:46:25;;;;;;;2.22;0.82;;;15.10;99.90;;;;;;5092599;28;20195;-80
2022/06/12 07:48:56;;;;;;;1.15;0.60;;;15.10;99.90;;;;;;5105834;28;20190;-81
2022/06/12 07:51:27;;;;;;;1.50;0.77;;;15.10;99.90;;;;;;5114507;28;20577;-79
2022/06/12 07:54:00;;;;;;;1.50;0.70;;;15.10;99.90;;;;;;5113232;28;20576;-79
2022/06/12 07:56:33;;;;;;;3.63;0.70;;;15.10;99.90;;;;;;5096016;28;20198;-78
2022/06/12 07:59:04;;;;;;;1.15;0.90;;;15.10;99.90;;;;;;5093089;28;20201;-79
2022/06/12 08:01:35;;;;;;;2.53;0.98;;;15.00;99.90;;;;;;5089400;28;20295;-78
2022/06/12 08:04:06;;;;;;;0.80;0.65;;;15.00;99.90;;;;;;5101705;28;20563;-84
2022/06/12 08:06:37;;;;;;;1.83;1.20;;;14.90;99.90;;;;;;5114251;27;20608;-84
2022/06/12 08:09:10;;;;;;;2.05;1.00;;;14.80;99.90;;;;;;5095393;28;20570;-84
2022/06/12 08:11:45;;;;;;;1.23;1.00;;;14.90;99.90;;;;;;5092251;28;20195;-84
2022/06/12 08:14:18;;;;;;;1.00;0.90;;;14.80;99.90;;;;;;5102605;28;20194;-83
2022/06/12 08:16:49;;;;;;;2.20;0.88;;;14.80;99.90;;;;;;5111659;28;20198;-78
2022/06/12 08:22:11;;;;;;;1.05;0.68;;;14.80;99.90;;;;;;5093082;28;20791;-78
2022/06/12 08:24:42;;;;;;;0.93;0.70;;;14.80;99.90;;;;;;5109439;28;20202;-78
2022/06/12 08:27:16;;;;;;;1.27;0.50;;;14.80;99.90;;;;;;5113334;28;20198;-79
2022/06/12 08:29:47;;;;;;;1.98;0.80;;;14.70;99.90;;;;;;5106995;28;20199;-79
2022/06/12 08:32:21;;;;;;;1.00;0.70;;;14.70;99.90;;;;;;5100170;28;20248;-78
2022/06/12 08:34:54;;;;;;;0.85;0.60;;;14.70;99.90;;;;;;5106211;28;20298;-77
2022/06/12 08:37:30;;;;;;;0.88;0.63;;;14.60;99.90;;;;;;5080818;28;20200;-78
2022/06/12 08:40:01;;;;;;;0.50;0.45;;;14.60;99.90;;;;;;5111735;28;20672;-77
2022/06/12 08:42:41;;;;;;;1.98;0.75;;;14.60;99.90;;;;;;5090518;27;20229;-78
2022/06/12 08:45:18;;;;;;;1.25;0.70;;;14.50;99.90;;;;;;5105092;28;20194;-78
2022/06/12 08:47:55;;;;;;;1.17;0.55;;;14.60;99.90;;;;;;5111695;28;20202;-84
2022/06/12 08:50:33;;;;;;;1.00;0.60;;;14.60;99.90;;;;;;5104504;28;20192;-80
2022/06/12 08:53:09;;;;;;;1.98;1.00;;;14.50;99.90;;;;;;5108308;28;20198;-79
2022/06/12 08:55:45;;;;;;;1.45;1.20;;;14.50;99.90;;;;;;5116710;28;20186;-79
2022/06/12 08:58:24;;;;;;;1.17;0.73;;;14.60;99.90;;;;;;5105527;28;20201;-79
2022/06/12 09:00:55;;;;;;;2.53;1.83;;;14.60;99.90;;;;;;5076592;28;20250;-79
2022/06/12 09:03:28;;;;;;;1.67;1.20;;;14.60;99.90;;;;;;5088651;28;20226;-79
2022/06/12 09:06:10;;;;;;;2.15;1.00;;;14.60;99.90;;;;;;5110952;28;20194;-79
2022/06/12 09:08:47;;;;;;;1.83;0.90;;;14.50;99.90;;;;;;5101275;28;20195;-80
2022/06/12 09:11:21;;;;;;;2.50;1.20;;;14.50;99.90;;;;;;5077608;28;20230;-80
2022/06/12 09:13:59;;;;;;;3.25;0.90;;;14.50;99.90;;;;;;5113291;28;20202;-79
2022/06/12 09:16:37;;;;;;;1.35;0.93;;;14.50;99.90;;;;;;5102719;28;20194;-79
2022/06/12 09:19:16;;;;;;;2.40;1.30;;;14.50;99.90;;;;;;5100574;28;20194;-80
2022/06/12 09:22:02;;;;;;;1.25;0.90;;;14.50;99.90;;;;;;5110165;27;20211;-78
2022/06/12 09:24:49;;;;;;;1.27;0.80;;;14.50;99.90;;;;;;5111801;28;20186;-78
2022/06/12 09:27:27;;;;;;;2.38;1.02;;;14.40;99.90;;;;;;5076937;27;20214;-78
2022/06/12 09:30:05;;;;;;;1.48;0.90;;;14.40;99.90;;;;;;5107044;28;20209;-79
2022/06/12 09:32:51;;;;;;;2.17;1.13;;;14.30;99.90;;;;;;5095049;28;20207;-78
2022/06/12 09:35:39;;;;;;;2.03;1.10;;;14.30;99.90;;;;;;5107344;28;20267;-79
2022/06/12 09:38:19;;;;;;;1.20;0.80;;;14.30;99.90;;;;;;5108914;28;20201;-78
2022/06/12 09:41:14;;;;;;;1.70;0.80;;;14.20;99.90;;;;;;5078071;28;20192;-78
2022/06/12 09:43:57;;;;;;;0.90;0.80;;;14.20;99.90;;;;;;5088052;28;20226;-84
2022/06/12 09:46:40;;;;;;;2.88;0.90;;;14.20;99.90;;;;;;5095783;28;20195;-79
2022/06/12 09:49:25;;;;;;;1.45;1.00;;;14.10;99.90;;;;;;5111838;28;20213;-78
2022/06/12 09:52:12;;;;;;;1.60;1.20;;;14.10;99.90;;;;;;5094198;28;20199;-78
2022/06/12 09:54:53;;;;;;;2.00;1.00;;;14.00;99.90;;;;;;5102946;28;21643;-78
2022/06/12 09:57:39;;;;;;;2.72;1.23;;;14.00;99.90;;;;;;5107987;28;20201;-78
2022/06/12 10:00:13;;;;;;;1.30;1.02;;;14.00;99.90;;;;;;5092985;28;20235;-77
2022/06/12 10:02:50;;;;;;;1.42;1.20;;;14.00;99.90;;;;;;5083968;28;20640;-77
2022/06/12 10:05:27;;;;;;;1.88;1.20;;;14.00;99.90;;;;;;5109823;28;20607;-77
2022/06/12 10:08:04;;;;;;;2.97;2.05;;;13.90;99.90;;;;;;5110203;28;20261;-77
2022/06/12 10:10:41;;;;;;;2.10;1.88;;;13.90;99.90;;;;;;5111400;28;20216;-77
2022/06/12 10:13:15;;;;;;;3.38;1.98;;;14.00;99.90;;;;;;5105471;28;20218;-77
2022/06/12 10:15:49;;;;;;;2.30;1.70;;;13.90;99.90;;;;;;5109611;28;20199;-78
2022/06/12 10:18:27;;;;;;;2.53;1.67;;;13.90;99.90;;;;;;5079148;28;20201;-77
2022/06/12 10:21:03;;;;;;;6.15;1.92;;;13.90;99.90;;;;;;5071043;28;20192;-76
2022/06/12 10:23:34;;;;;;;4.00;2.08;;;13.80;99.90;;;;;;5082363;28;20224;-77
2022/06/12 10:26:10;;;;;;;2.88;1.90;;;13.80;99.90;;;;;;5104585;28;20191;-77
2022/06/12 10:28:41;;;;;;;2.88;1.58;;;13.70;99.90;;;;;;5109886;28;20194;-77
2022/06/12 10:31:23;;;;;;;2.25;1.70;;;13.70;99.90;;;;;;5105122;28;20199;-80
2022/06/12 10:33:58;;;;;;;3.35;2.00;;;13.70;99.90;;;;;;5089169;28;20258;-81
2022/06/12 10:36:31;;;;;;;2.75;1.65;;;13.70;99.90;;;;;;5079084;28;20196;-81
2022/06/12 10:39:17;;;;;;;4.15;1.50;;;13.60;99.90;;;;;;5093356;28;20649;-81
2022/06/12 10:41:53;;;;;;;1.60;1.50;;;13.50;99.90;;;;;;5111301;28;20205;-78
2022/06/12 10:44:33;;;;;;;2.00;1.60;;;13.50;99.90;;;;;;5107379;28;20278;-77
2022/06/12 10:47:18;;;;;;;2.35;1.75;;;13.50;99.90;;;;;;5106310;28;20202;-77
2022/06/12 10:50:02;;;;;;;2.17;1.70;;;13.50;99.90;;;;;;5105456;28;20669;-76
2022/06/12 10:52:33;;;;;;;1.45;1.33;;;13.50;99.90;;;;;;5085191;28;20214;-76
2022/06/12 10:55:04;;;;;;;1.60;1.50;;;13.50;99.90;;;;;;5106464;28;20192;-77
2022/06/12 10:57:46;;;;;;;3.20;1.80;;;13.50;99.90;;;;;;5099515;28;20195;-76
2022/06/12 11:00:20;;;;;;;1.55;1.40;;;13.40;99.90;;;;;;5109349;28;20217;-76
2022/06/12 11:03:17;;;;;;;3.30;1.58;;;13.40;99.90;;;;;;5106768;28;20218;-76
2022/06/12 11:06:01;;;;;;;3.45;1.98;;;13.40;99.90;;;;;;5070136;28;20215;-77
2022/06/12 11:09:10;;;;;;;2.80;2.00;;;13.40;99.90;;;;;;5070148;28;20199;-78
2022/06/12 11:11:56;;;;;;;3.72;1.70;;;13.40;99.90;;;;;;5053987;28;20211;-78
2022/06/12 11:14:38;;;;;;;1.95;1.70;;;13.40;99.90;;;;;;5104558;28;20198;-79
2022/06/12 11:17:36;;;;;;;3.28;1.70;;;13.50;99.90;;;;;;5097839;28;20654;-78
2022/06/12 11:20:22;;;;;;;2.95;1.50;;;13.40;99.90;;;;;;5101516;28;20552;-78
2022/06/12 11:23:16;;;;;;;2.10;1.60;;;13.40;99.90;;;;;;5107269;28;20229;-77
2022/06/12 11:26:03;;;;;;;2.42;1.50;;;13.40;99.90;;;;;;5085906;28;20244;-79
2022/06/12 11:28:45;;;;;;;2.55;1.70;;;13.40;99.90;;;;;;5082344;28;20600;-78
2022/06/12 11:31:32;;;;;;;2.67;1.65;;;13.40;99.90;;;;;;5103605;28;20609;-79
2022/06/12 11:34:16;;;;;;;3.35;1.98;;;13.40;99.90;;;;;;5108780;28;20694;-80
2022/06/12 11:36:55;;;;;;;2.20;1.70;;;13.40;99.90;;;;;;5099648;28;20188;-77
2022/06/12 11:39:44;;;;;;;4.72;1.75;;;13.40;99.90;;;;;;5097934;28;20226;-79
2022/06/12 11:42:39;;;;;;;1.75;1.45;;;13.50;99.90;;;;;;5091676;28;20650;-78
2022/06/12 11:45:19;;;;;;;2.88;1.85;;;13.50;99.90;;;;;;5077043;28;20199;-78
2022/06/12 11:48:02;;;;;;;2.10;1.65;;;13.40;99.90;;;;;;5094629;28;20222;-78
2022/06/12 11:50:39;;;;;;;2.45;1.75;;;13.40;99.90;;;;;;5110258;28;20202;-76
2022/06/12 11:53:24;;;;;;;2.50;1.60;;;13.40;99.90;;;;;;5089377;28;20200;-82
2022/06/12 11:56:00;;;;;;;2.58;1.83;;;13.30;99.90;;;;;;5090933;28;20199;-82
2022/06/12 11:58:50;;;;;;;4.20;1.50;;;13.30;99.90;;;;;;5080997;28;20206;-77
2022/06/12 12:01:28;;;;;;;2.25;1.50;;;13.30;99.90;;;;;;5082384;28;20200;-78
2022/06/12 12:04:25;;;;;;;2.05;1.63;;;13.20;99.90;;;;;;5082688;28;20222;-78
2022/06/12 12:07:14;;;;;;;2.80;1.65;;;13.30;99.90;;;;;;5093162;28;20194;-77
2022/06/12 12:09:58;;;;;;;2.72;1.90;;;13.30;99.90;;;;;;5110167;28;20257;-79
2022/06/12 12:12:34;;;;;;;2.58;1.70;;;13.30;99.90;;;;;;5106795;28;20198;-79
2022/06/12 12:15:13;;;;;;;2.28;1.60;;;13.20;99.90;;;;;;5100961;28;20742;-79
2022/06/12 12:17:46;;;;;;;2.00;1.70;;;13.20;99.90;;;;;;5089570;28;20195;-78
2022/06/12 12:20:22;;;;;;;1.95;1.42;;;13.20;99.90;;;;;;5107326;28;20658;-80
2022/06/12 12:22:57;;;;;;;2.55;1.70;;;13.20;99.90;;;;;;5113466;28;20198;-83
2022/06/12 12:25:30;;;;;;;2.60;1.60;;;13.10;99.90;;;;;;5094131;28;20220;-79
2022/06/12 12:28:06;;;;;;;3.15;1.70;;;13.10;99.90;;;;;;5113726;28;20658;-79
2022/06/12 12:30:44;;;;;;;2.13;1.70;;;13.10;99.90;;;;;;5110312;28;20202;-79
2022/06/12 12:33:20;;;;;;;2.58;2.08;;;13.00;99.90;;;;;;5083152;28;20222;-79
2022/06/12 12:41:40;;;;;;;2.63;1.65;;;13.00;99.90;;;;;;5072700;28;20257;-80
2022/06/12 12:44:14;;;;;;;2.50;1.60;;;13.00;99.90;;;;;;5097895;28;20263;-79
2022/06/12 12:46:48;;;;;;;3.50;1.60;;;13.00;99.90;;;;;;5089759;28;20218;-79
2022/06/12 12:49:32;;;;;;;2.03;1.30;;;13.00;99.90;;;;;;5100142;28;20198;-78
2022/06/12 12:52:14;;;;;;;1.52;1.40;;;13.00;99.90;;;;;;5080388;28;20613;-78
2022/06/12 12:54:56;;;;;;;1.98;1.40;;;13.10;99.90;;;;;;5095389;28;20219;-79
2022/06/12 12:57:39;;;;;;;1.30;1.10;;;13.10;99.90;;;;;;5082936;28;20672;-79
2022/06/12 13:00:26;;;;;;;1.42;1.23;;;13.10;99.90;;;;;;5110971;28;20222;-79
2022/06/12 13:03:00;;;;;;;1.60;1.17;;;13.00;99.90;;;;;;5110161;27;20202;-79
2022/06/12 13:05:43;;;;;;;2.55;1.50;;;13.00;99.90;;;;;;5112888;28;20261;-80
2022/06/12 13:08:24;;;;;;;1.67;1.20;;;13.00;99.90;;;;;;5080541;28;20578;-80
2022/06/12 13:11:07;;;;;;;1.75;1.10;;;13.10;99.90;;;;;;5075873;28;20206;-79
2022/06/12 13:14:02;;;;;;;2.92;1.35;;;13.10;99.90;;;;;;5099091;28;20201;-79
2022/06/12 13:16:53;;;;;;;2.65;1.35;;;13.10;99.90;;;;;;5104674;28;20770;-80
2022/06/12 13:19:42;;;;;;;1.98;1.38;;;13.00;99.90;;;;;;5107273;28;20215;-79
2022/06/12 13:22:27;;;;;;;1.73;1.38;;;13.00;99.90;;;;;;5109103;28;20226;-83
2022/06/12 13:25:03;;;;;;;1.30;1.20;;;13.00;99.90;;;;;;5110572;28;20619;-83
2022/06/12 13:27:36;;;;;;;2.38;1.20;;;13.00;99.90;;;;;;5111165;28;20743;-82
2022/06/12 13:30:20;;;;;;;1.42;1.10;;;12.90;99.90;;;;;;5112258;28;20197;-81
2022/06/12 13:32:53;;;;;;;1.83;1.30;;;12.90;99.90;;;;;;5107177;28;20238;-79
2022/06/12 13:35:29;;;;;;;2.72;1.17;;;12.90;99.90;;;;;;5077723;28;20196;-78
2022/06/12 13:38:05;;;;;;;1.30;0.90;;;12.90;99.90;;;;;;5078157;28;20278;-80
2022/06/12 13:40:40;;;;;;;1.23;1.00;;;12.90;99.90;;;;;;5087714;28;20219;-80
2022/06/12 13:43:22;;;;;;;1.98;1.00;;;12.90;99.90;;;;;;5091021;28;20229;-79
2022/06/12 13:45:55;;;;;;;1.52;1.00;;;12.90;99.90;;;;;;5111754;28;20261;-80
2022/06/12 13:48:31;;;;;;;1.40;0.88;;;12.80;99.90;;;;;;5105916;28;20202;-79
2022/06/12 13:51:12;;;;;;;1.35;0.90;;;12.90;99.90;;;;;;5106846;28;20202;-80
2022/06/12 13:53:47;;;;;;;2.28;0.95;;;12.90;99.90;;;;;;5070933;28;20199;-80
2022/06/12 13:56:19;;;;;;;1.13;0.90;;;13.00;99.90;;;;;;5100128;28;20210;-81